WAOO/BDJ METAR and TAF weather

Enter ICAO airport designator
Station Type Date Time Source
WAOO METAR 2022/01/29 01:30 UTC NOAA

WAOO 290130Z 05005KT 360V090 CAVOK 27/23 Q1011 N0SIG


Station Type Date Time Source
WAOO Decoded METAR 2022/01/29 01:30 UTC NOAA

Station name not available
Jan 28, 2022 - 08:30 PM EST / 2022.01.29 0130 UTC
Wind: from the NE (050 degrees) at 6 MPH (5 KT) (direction variable):0
Visibility: greater than 7 mile(s):0
Temperature: 80 F (27 C)
Dew Point: 73 F (23 C)
Relative Humidity: 78%
Pressure (altimeter): 29.85 in. Hg (1011 hPa)
ob: WAOO 290130Z 05005KT 360V090 CAVOK 27/23 Q1011 N0SIG
cycle: 1

Station Type Date Time Source
WAOO TAF 2022/01/28 18:00 UTC NOAA

TAF WAOO 281700Z 2818/2918 09006KT 9999 SCT018
BECMG 2905/2907 21010KT

Example: see airport list